createdAt,value
2022-07-25T00:00:56.557Z,15.08
2022-07-25T00:06:04.553Z,15.07
2022-07-25T00:11:13.452Z,15.06
2022-07-25T00:16:20.794Z,15.01
2022-07-25T00:21:28.151Z,14.96
2022-07-25T00:26:36.419Z,14.9
2022-07-25T00:31:43.033Z,14.86
2022-07-25T00:36:52.401Z,14.84
2022-07-25T00:42:00.040Z,14.78
2022-07-25T00:47:07.780Z,14.7
2022-07-25T00:52:16.155Z,14.65
2022-07-25T00:57:22.961Z,14.61
2022-07-25T01:02:30.023Z,14.53
2022-07-25T01:07:37.227Z,14.46
2022-07-25T01:12:45.033Z,14.34
2022-07-25T01:17:51.164Z,14.26
2022-07-25T01:22:58.958Z,14.21
2022-07-25T01:28:07.491Z,14.16
2022-07-25T01:33:14.554Z,14.16
2022-07-25T01:38:22.394Z,14.15
2022-07-25T01:43:30.263Z,14.14
2022-07-25T01:48:38.668Z,14.08
2022-07-25T01:53:46.502Z,14.02
2022-07-25T01:58:55.350Z,13.98
2022-07-25T02:04:02.873Z,13.96
2022-07-25T02:09:11.531Z,13.93
2022-07-25T02:14:19.295Z,13.9
2022-07-25T02:19:27.629Z,13.84
2022-07-25T02:24:34.523Z,13.8
2022-07-25T02:29:42.253Z,13.74
2022-07-25T02:34:51.598Z,13.68
2022-07-25T02:39:59.372Z,13.61
2022-07-25T02:45:07.242Z,13.54
2022-07-25T02:50:15.162Z,13.52
2022-07-25T02:55:22.446Z,13.5
2022-07-25T03:00:30.222Z,13.5
2022-07-25T03:05:36.905Z,13.49
2022-07-25T03:10:45.062Z,13.47
2022-07-25T03:15:51.951Z,13.46
2022-07-25T03:20:59.787Z,13.43
2022-07-25T03:26:08.705Z,13.42
2022-07-25T03:31:16.740Z,13.42
2022-07-25T03:36:25.101Z,13.42
2022-07-25T03:41:33.507Z,13.4
2022-07-25T03:46:41.512Z,13.42
2022-07-25T03:51:49.436Z,13.44
2022-07-25T03:56:57.667Z,13.64
2022-07-25T04:02:05.644Z,13.99
2022-07-25T04:07:12.898Z,14.49
2022-07-25T04:12:20.770Z,15.06
2022-07-25T04:17:29.619Z,15.69
2022-07-25T04:22:37.103Z,16.41
2022-07-25T04:27:44.963Z,17.23
2022-07-25T04:32:53.110Z,17.96
2022-07-25T04:38:01.575Z,18.72
2022-07-25T04:43:10.215Z,19.24
2022-07-25T04:53:26.592Z,20.21
2022-07-25T04:58:38.304Z,20.64
2022-07-25T05:03:47.177Z,20.94
2022-07-25T05:08:54.463Z,21.1
2022-07-25T05:14:01.809Z,21.2
2022-07-25T05:19:10.341Z,21.44
2022-07-25T05:24:18.862Z,21.62
2022-07-25T05:29:27.670Z,21.92
2022-07-25T05:34:35.142Z,22.28
2022-07-25T05:39:42.744Z,22.54
2022-07-25T05:44:50.180Z,22.78
2022-07-25T05:49:57.697Z,23.02
2022-07-25T05:55:05.869Z,23.33
2022-07-25T06:00:13.060Z,23.72
2022-07-25T06:05:22.070Z,24.16
2022-07-25T06:10:30.632Z,24.67
2022-07-25T06:15:38.929Z,24.8
2022-07-25T06:20:46.488Z,25.21
2022-07-25T06:25:54.646Z,25.68
2022-07-25T06:31:02.548Z,26.16
2022-07-25T06:36:10.474Z,26.66
2022-07-25T06:41:17.752Z,26.93
2022-07-25T06:46:31.639Z,27.06
2022-07-25T06:51:38.502Z,27.18
2022-07-25T06:56:45.065Z,27.38
2022-07-25T07:01:52.858Z,27.39
2022-07-25T07:06:59.501Z,27.49
2022-07-25T07:12:07.243Z,27.51
2022-07-25T07:17:15.087Z,27.6
2022-07-25T07:22:22.345Z,27.78
2022-07-25T07:27:29.703Z,28.0
2022-07-25T07:32:37.416Z,28.1
2022-07-25T07:37:45.721Z,28.42
2022-07-25T07:42:52.423Z,28.84
2022-07-25T07:47:59.621Z,28.97
2022-07-25T07:53:07.466Z,29.22
2022-07-25T07:58:15.704Z,29.48
2022-07-25T08:03:24.763Z,29.56
2022-07-25T08:08:34.118Z,29.7
2022-07-25T08:13:42.321Z,29.86
2022-07-25T08:18:49.838Z,30.26
2022-07-25T08:23:57.142Z,30.36
2022-07-25T08:29:03.678Z,30.44
2022-07-25T08:34:11.973Z,30.52
2022-07-25T08:39:19.883Z,30.72
2022-07-25T08:44:28.216Z,30.99
2022-07-25T08:49:36.388Z,30.93
2022-07-25T08:54:43.882Z,31.18
2022-07-25T08:59:51.648Z,31.55
2022-07-25T09:05:06.635Z,31.67
2022-07-25T09:10:14.533Z,31.8
2022-07-25T09:15:22.698Z,31.96
2022-07-25T09:20:30.282Z,32.26
2022-07-25T09:25:37.337Z,32.64
2022-07-25T09:30:45.433Z,32.7
2022-07-25T09:35:51.948Z,32.79
2022-07-25T09:41:00.232Z,32.89
2022-07-25T09:46:08.909Z,32.94
2022-07-25T09:51:17.767Z,33.01
2022-07-25T09:56:25.220Z,33.07
2022-07-25T10:01:32.419Z,33.34
2022-07-25T10:06:40.200Z,33.13
2022-07-25T10:16:57.037Z,33.4
2022-07-25T10:22:04.423Z,33.52
2022-07-25T10:27:34.052Z,33.74
2022-07-25T10:27:34.421Z,33.74
2022-07-25T10:32:42.208Z,33.85
2022-07-25T10:37:49.755Z,33.66
2022-07-25T10:42:57.892Z,33.74
2022-07-25T10:48:06.017Z,34.01
2022-07-25T10:53:13.923Z,34.22
2022-07-25T10:58:22.864Z,34.11
2022-07-25T11:08:37.387Z,34.31
2022-07-25T11:13:44.590Z,34.45
2022-07-25T11:18:52.994Z,34.47
2022-07-25T11:24:00.807Z,34.33
2022-07-25T11:29:09.268Z,34.2
2022-07-25T11:34:17.226Z,34.11
2022-07-25T11:39:24.690Z,34.2
2022-07-25T11:44:32.259Z,34.22
2022-07-25T11:49:38.950Z,34.25
2022-07-25T11:54:46.614Z,34.25
2022-07-25T11:59:53.802Z,34.26
2022-07-25T12:05:02.340Z,34.11
2022-07-25T12:10:10.440Z,34.08
2022-07-25T12:20:26.119Z,33.99
2022-07-25T12:25:32.575Z,33.86
2022-07-25T12:30:40.264Z,33.74
2022-07-25T12:35:48.517Z,33.71
2022-07-25T12:40:55.753Z,33.8
2022-07-25T12:46:03.978Z,33.79
2022-07-25T12:51:11.559Z,33.84
2022-07-25T13:01:27.739Z,33.74
2022-07-25T13:11:42.295Z,33.76
2022-07-25T13:21:57.379Z,33.89
2022-07-25T13:27:04.697Z,34.0
2022-07-25T13:32:13.640Z,34.08
2022-07-25T13:37:21.483Z,34.06
2022-07-25T13:42:28.832Z,34.08
2022-07-25T13:47:36.637Z,34.11
2022-07-25T14:13:15.784Z,34.61
2022-07-25T14:23:31.334Z,34.97
2022-07-25T14:44:00.963Z,35.17
2022-07-25T14:49:18.238Z,35.15
2022-07-25T14:54:26.069Z,35.15
2022-07-25T15:09:47.189Z,35.13
2022-07-25T15:20:02.236Z,35.09
2022-07-25T15:25:10.666Z,35.09
2022-07-25T15:30:18.447Z,35.12
2022-07-25T15:40:33.466Z,35.07
2022-07-25T15:45:40.099Z,35.02
2022-07-25T15:55:56.026Z,34.88
2022-07-25T16:01:04.755Z,34.79
2022-07-25T16:06:12.744Z,34.76
2022-07-25T16:11:20.937Z,34.67
2022-07-25T16:16:27.782Z,34.58
2022-07-25T16:26:42.756Z,34.32
2022-07-25T16:31:50.951Z,34.19
2022-07-25T16:36:58.365Z,34.04
2022-07-25T16:47:14.227Z,33.85
2022-07-25T16:52:21.427Z,33.69
2022-07-25T16:57:28.268Z,33.56
2022-07-25T17:02:36.390Z,33.32
2022-07-25T17:07:43.264Z,33.16
2022-07-25T17:12:50.453Z,32.96
2022-07-25T17:17:58.174Z,32.59
2022-07-25T17:23:04.119Z,32.11
2022-07-25T17:28:11.082Z,31.53
2022-07-25T17:38:24.260Z,30.26
2022-07-25T17:43:30.742Z,29.96
2022-07-25T17:48:38.537Z,29.7
2022-07-25T17:53:48.022Z,29.42
2022-07-25T17:58:55.342Z,29.03
2022-07-25T18:04:04.411Z,28.66
2022-07-25T18:09:12.581Z,28.35
2022-07-25T18:14:19.782Z,28.08
2022-07-25T18:19:26.579Z,27.76
2022-07-25T18:24:35.715Z,27.36
2022-07-25T18:29:44.322Z,26.88
2022-07-25T18:34:51.250Z,26.38
2022-07-25T18:39:59.642Z,25.92
2022-07-25T18:50:14.661Z,25.04
2022-07-25T18:55:22.490Z,24.81
2022-07-25T19:00:29.703Z,24.54
2022-07-25T19:05:38.161Z,24.34
2022-07-25T19:10:46.338Z,24.28
2022-07-25T19:15:53.262Z,24.31
2022-07-25T19:21:00.464Z,24.48
2022-07-25T19:26:07.982Z,24.7
2022-07-25T19:31:15.814Z,24.79
2022-07-25T19:36:23.326Z,24.84
2022-07-25T19:41:31.985Z,24.93
2022-07-25T19:46:40.960Z,24.98
2022-07-25T19:51:46.817Z,24.93
2022-07-25T19:56:55.246Z,24.81
2022-07-25T20:02:01.899Z,24.64
2022-07-25T20:07:09.068Z,24.48
2022-07-25T20:12:17.830Z,24.28
2022-07-25T20:17:25.932Z,24.08
2022-07-25T20:22:37.746Z,23.9
2022-07-25T20:27:45.540Z,23.7
2022-07-25T20:32:52.736Z,23.54
2022-07-25T20:37:59.337Z,23.49
2022-07-25T20:43:07.856Z,23.51
2022-07-25T20:48:16.081Z,23.56
2022-07-25T20:53:24.422Z,23.56
2022-07-25T20:58:31.938Z,23.52
2022-07-25T21:03:40.180Z,23.47
2022-07-25T21:08:47.663Z,23.4
2022-07-25T21:13:56.619Z,23.33
2022-07-25T21:19:03.931Z,23.18
2022-07-25T21:24:12.127Z,23.1
2022-07-25T21:29:19.963Z,23.08
2022-07-25T21:35:05.861Z,23.06
2022-07-25T21:40:13.290Z,23.02
2022-07-25T21:45:22.112Z,22.98
2022-07-25T21:50:29.919Z,22.92
2022-07-25T21:55:37.908Z,22.8
2022-07-25T22:00:45.105Z,22.73
2022-07-25T22:05:53.411Z,22.65
2022-07-25T22:11:00.770Z,22.58
2022-07-25T22:16:09.427Z,22.48
2022-07-25T22:21:17.652Z,22.42
2022-07-25T22:26:26.289Z,22.38
2022-07-25T22:31:39.180Z,22.38
2022-07-25T22:42:30.025Z,22.36
2022-07-25T22:47:38.768Z,22.3
2022-07-25T22:52:46.917Z,22.2
2022-07-25T22:57:53.529Z,22.12
2022-07-25T23:03:01.900Z,22.08
2022-07-25T23:08:09.907Z,22.08
2022-07-25T23:13:17.013Z,22.04
2022-07-25T23:18:24.699Z,22.02
2022-07-25T23:23:32.150Z,22.02
2022-07-25T23:28:38.692Z,22.01
2022-07-25T23:33:47.509Z,22.02
2022-07-25T23:38:55.621Z,22.06
2022-07-25T23:44:03.453Z,22.2
2022-07-25T23:49:10.919Z,22.3
2022-07-25T23:54:18.318Z,22.36
